createdAt,value
2018-07-08T00:01:25.969Z,17.30
2018-07-08T00:06:16.856Z,17.20
2018-07-08T00:11:07.754Z,17.20
2018-07-08T00:15:59.379Z,17.00
2018-07-08T00:20:51.025Z,17.00
2018-07-08T00:25:42.673Z,16.90
2018-07-08T00:30:33.560Z,16.90
2018-07-08T00:35:24.468Z,16.80
2018-07-08T00:40:15.368Z,16.70
2018-07-08T00:45:06.260Z,16.70
2018-07-08T00:49:57.162Z,16.60
2018-07-08T00:54:48.057Z,16.50
2018-07-08T00:59:39.687Z,16.30
2018-07-08T01:04:30.580Z,16.30
2018-07-08T01:09:21.485Z,16.30
2018-07-08T01:14:12.375Z,16.20
2018-07-08T01:19:03.279Z,16.20
2018-07-08T01:23:54.916Z,16.00
2018-07-08T01:28:46.557Z,16.00
2018-07-08T01:33:37.469Z,16.00
2018-07-08T01:38:28.358Z,15.90
2018-07-08T01:43:19.242Z,15.90
2018-07-08T01:48:10.137Z,15.80
2018-07-08T01:53:01.040Z,15.80
2018-07-08T01:57:52.674Z,15.70
2018-07-08T02:02:44.318Z,15.60
2018-07-08T02:07:35.203Z,15.60
2018-07-08T02:12:26.110Z,15.60
2018-07-08T02:17:16.996Z,15.50
2018-07-08T02:22:07.891Z,15.50
2018-07-08T02:26:58.780Z,15.40
2018-07-08T02:31:50.428Z,15.30
2018-07-08T02:36:42.047Z,15.30
2018-07-08T02:41:32.924Z,15.30
2018-07-08T02:46:23.816Z,15.30
2018-07-08T02:51:15.457Z,15.20
2018-07-08T02:56:06.384Z,15.20
2018-07-08T03:00:57.271Z,15.20
2018-07-08T03:05:48.951Z,15.20
2018-07-08T03:10:39.888Z,15.20
2018-07-08T03:15:30.806Z,15.30
2018-07-08T03:20:21.714Z,15.30
2018-07-08T03:25:12.638Z,15.30
2018-07-08T03:30:03.537Z,15.30
2018-07-08T03:34:54.448Z,15.30
2018-07-08T03:39:45.348Z,15.40
2018-07-08T03:44:36.999Z,15.40
2018-07-08T03:49:27.916Z,15.40
2018-07-08T03:54:18.817Z,15.40
2018-07-08T03:59:10.468Z,15.50
2018-07-08T04:04:01.408Z,15.50
2018-07-08T04:08:52.315Z,15.60
2018-07-08T04:13:43.228Z,15.60
2018-07-08T04:18:34.129Z,15.70
2018-07-08T04:23:25.773Z,15.80
2018-07-08T04:28:16.695Z,15.80
2018-07-08T04:33:07.597Z,15.80
2018-07-08T04:37:59.226Z,15.90
2018-07-08T04:42:50.861Z,16.00
2018-07-08T04:47:42.504Z,16.00
2018-07-08T04:52:34.130Z,16.00
2018-07-08T04:57:25.773Z,16.10
2018-07-08T05:02:17.414Z,16.20
2018-07-08T05:07:09.068Z,16.20
2018-07-08T05:11:59.969Z,16.20
2018-07-08T05:16:51.595Z,16.40
2018-07-08T05:21:43.234Z,16.50
2018-07-08T05:26:34.862Z,16.60
2018-07-08T05:31:26.496Z,16.70
2018-07-08T05:36:18.148Z,16.80
2018-07-08T05:41:09.766Z,16.90
2018-07-08T05:46:00.662Z,16.90
2018-07-08T05:50:51.559Z,17.00
2018-07-08T05:55:42.456Z,17.10
2018-07-08T06:00:33.373Z,17.20
2018-07-08T06:05:25.021Z,17.30
2018-07-08T06:10:15.928Z,17.20
2018-07-08T06:15:06.815Z,17.30
2018-07-08T06:19:58.456Z,17.40
2018-07-08T06:24:50.095Z,17.50
2018-07-08T06:29:41.721Z,17.50
2018-07-08T06:34:33.361Z,17.60
2018-07-08T06:39:25.019Z,17.70
2018-07-08T06:44:15.920Z,17.60
2018-07-08T06:49:07.572Z,17.90
2018-07-08T06:53:58.474Z,17.90
2018-07-08T06:58:50.113Z,18.20
2018-07-08T07:03:41.738Z,18.20
2018-07-08T07:08:33.390Z,18.40
2018-07-08T07:13:24.294Z,18.40
2018-07-08T07:18:15.197Z,18.40
2018-07-08T07:23:06.235Z,18.50
2018-07-08T07:27:57.072Z,18.60
2018-07-08T07:32:47.967Z,18.70
2018-07-08T07:37:39.608Z,18.90
2018-07-08T07:42:31.281Z,19.00
2018-07-08T07:47:22.177Z,19.00
2018-07-08T07:52:13.081Z,19.10
2018-07-08T07:57:04.720Z,19.40
2018-07-08T08:01:56.344Z,19.50
2018-07-08T08:06:47.252Z,19.50
2018-07-08T08:11:38.151Z,19.60
2018-07-08T08:16:29.051Z,19.70
2018-07-08T08:21:19.974Z,19.90
2018-07-08T08:26:10.888Z,20.00
2018-07-08T08:31:01.787Z,20.00
2018-07-08T08:35:52.697Z,20.10
2018-07-08T08:40:43.607Z,20.30
2018-07-08T08:45:34.506Z,20.40
2018-07-08T08:50:26.165Z,20.60
2018-07-08T08:55:17.099Z,20.60
2018-07-08T09:00:08.025Z,20.70
2018-07-08T09:04:59.048Z,20.90
2018-07-08T09:09:49.951Z,21.00
2018-07-08T09:14:40.873Z,21.10
2018-07-08T09:19:31.775Z,21.30
2018-07-08T09:24:23.192Z,21.40
2018-07-08T09:29:14.117Z,21.50
2018-07-08T09:34:05.767Z,21.80
2018-07-08T09:38:56.752Z,21.70
2018-07-08T09:43:47.710Z,21.90
2018-07-08T09:48:38.624Z,22.00
2018-07-08T09:53:29.527Z,22.20
2018-07-08T09:58:21.196Z,22.50
2018-07-08T10:03:12.105Z,22.50
2018-07-08T10:08:03.426Z,22.70
2018-07-08T10:12:55.090Z,22.90
2018-07-08T10:17:46.062Z,22.90
2018-07-08T10:22:36.918Z,23.00
2018-07-08T10:27:27.841Z,23.10
2018-07-08T10:32:18.742Z,23.30
2018-07-08T10:37:09.634Z,23.40
2018-07-08T10:42:01.274Z,23.70
2018-07-08T10:46:52.925Z,23.90
2018-07-08T10:51:43.842Z,23.90
2018-07-08T10:56:34.761Z,24.10
2018-07-08T11:01:25.669Z,24.20
2018-07-08T11:06:16.577Z,24.40
2018-07-08T11:11:08.205Z,24.80
2018-07-08T11:15:59.107Z,24.80
2018-07-08T11:20:50.058Z,25.00
2018-07-08T11:25:40.898Z,25.20
2018-07-08T11:30:31.798Z,25.50
2018-07-08T11:35:22.687Z,25.70
2018-07-08T11:40:13.579Z,26.00
2018-07-08T11:45:04.530Z,26.20
2018-07-08T11:49:55.471Z,26.40
2018-07-08T11:54:47.157Z,27.00
2018-07-08T11:59:38.116Z,27.00
2018-07-08T12:04:29.751Z,27.40
2018-07-08T12:09:21.403Z,27.40
2018-07-08T12:14:12.317Z,27.40
2018-07-08T12:19:03.223Z,27.50
2018-07-08T12:23:54.854Z,27.60
2018-07-08T12:28:46.497Z,27.80
2018-07-08T12:33:38.155Z,28.00
2018-07-08T12:38:29.050Z,28.00
2018-07-08T12:43:20.741Z,28.40
2018-07-08T12:48:11.657Z,28.40
2018-07-08T12:53:02.560Z,28.60
2018-07-08T12:57:53.468Z,28.70
2018-07-08T13:02:44.376Z,28.70
2018-07-08T13:07:35.302Z,28.70
2018-07-08T13:12:26.199Z,28.70
2018-07-08T13:17:17.845Z,28.80
2018-07-08T13:22:08.774Z,28.80
2018-07-08T13:26:59.670Z,28.90
2018-07-08T13:31:51.880Z,29.50
2018-07-08T13:36:42.800Z,29.40
2018-07-08T13:41:33.708Z,29.80
2018-07-08T13:46:24.611Z,30.10
2018-07-08T13:51:15.504Z,30.20
2018-07-08T13:56:06.441Z,30.30
2018-07-08T14:00:57.366Z,30.50
2018-07-08T14:05:48.267Z,30.60
2018-07-08T14:10:39.169Z,30.80
2018-07-08T14:15:30.827Z,31.00
2018-07-08T14:20:21.764Z,30.90
2018-07-08T14:25:12.626Z,31.00
2018-07-08T14:30:04.267Z,31.10
2018-07-08T14:34:55.946Z,31.10
2018-07-08T14:39:47.539Z,31.20
2018-07-08T14:44:39.189Z,31.30
2018-07-08T14:49:30.095Z,31.30
2018-07-08T14:54:21.734Z,31.30
2018-07-08T14:59:12.653Z,31.30
2018-07-08T15:04:03.561Z,31.20
2018-07-08T15:08:55.255Z,31.20
2018-07-08T15:13:46.166Z,31.20
2018-07-08T15:18:37.078Z,31.20
2018-07-08T15:23:27.992Z,31.10
2018-07-08T15:28:18.896Z,31.10
2018-07-08T15:33:09.803Z,31.00
2018-07-08T15:38:00.700Z,30.90
2018-07-08T15:42:52.360Z,30.90
2018-07-08T15:47:43.263Z,30.80
2018-07-08T15:52:34.918Z,30.70
2018-07-08T15:57:25.814Z,30.70
2018-07-08T16:02:17.452Z,30.50
2018-07-08T16:07:09.100Z,30.40
2018-07-08T16:12:00.060Z,30.40
2018-07-08T16:16:50.903Z,30.20
2018-07-08T16:21:41.801Z,30.10
2018-07-08T16:26:32.686Z,29.90
2018-07-08T16:31:23.569Z,29.70
2018-07-08T16:36:15.207Z,29.40
2018-07-08T16:41:06.839Z,29.30
2018-07-08T16:45:58.481Z,29.10
2018-07-08T16:50:50.135Z,28.90
2018-07-08T16:55:41.036Z,28.90
2018-07-08T17:00:32.679Z,28.50
2018-07-08T17:05:24.320Z,28.40
2018-07-08T17:10:15.207Z,28.30
2018-07-08T17:15:07.592Z,28.00
2018-07-08T17:19:58.474Z,28.00
2018-07-08T17:24:50.108Z,27.70
2018-07-08T17:29:40.997Z,27.70
2018-07-08T17:34:31.881Z,27.50
2018-07-08T17:39:22.772Z,27.40
2018-07-08T17:44:14.616Z,27.10
2018-07-08T17:49:06.260Z,27.00
2018-07-08T17:53:57.893Z,26.80
2018-07-08T17:58:49.512Z,26.70
2018-07-08T18:03:40.414Z,26.70
2018-07-08T18:08:32.059Z,26.50
2018-07-08T18:13:22.960Z,26.40
2018-07-08T18:18:13.860Z,26.40
2018-07-08T18:23:11.795Z,26.20
2018-07-08T18:28:02.691Z,26.10
2018-07-08T18:32:53.608Z,26.00
2018-07-08T18:37:44.520Z,25.80
2018-07-08T18:42:35.430Z,25.70
2018-07-08T18:47:26.353Z,25.60
2018-07-08T18:52:17.260Z,25.50
2018-07-08T18:57:08.159Z,25.30
2018-07-08T19:01:59.065Z,25.20
2018-07-08T19:06:49.993Z,25.00
2018-07-08T19:11:40.896Z,24.90
2018-07-08T19:16:31.791Z,24.80
2018-07-08T19:21:23.461Z,24.50
2018-07-08T19:26:14.350Z,24.50
2018-07-08T19:31:05.991Z,24.30
2018-07-08T19:35:57.635Z,24.20
2018-07-08T19:40:48.537Z,24.10
2018-07-08T19:45:40.175Z,23.90
2018-07-08T19:50:31.808Z,23.80
2018-07-08T19:55:23.453Z,23.70
2018-07-08T20:00:15.098Z,23.50
2018-07-08T20:05:06.003Z,23.50
2018-07-08T20:09:57.638Z,23.20
2018-07-08T20:14:49.285Z,23.00
2018-07-08T20:19:40.176Z,23.00
2018-07-08T20:24:31.068Z,22.90
2018-07-08T20:29:22.706Z,22.50
2018-07-08T20:34:13.583Z,22.50
2018-07-08T20:39:04.468Z,22.40
2018-07-08T20:43:55.360Z,22.20
2018-07-08T20:48:46.243Z,22.00
2018-07-08T20:53:37.141Z,21.90
2018-07-08T20:58:28.128Z,21.70
2018-07-08T21:03:19.155Z,21.60
2018-07-08T21:08:10.360Z,21.40
2018-07-08T21:13:01.277Z,21.30
2018-07-08T21:17:52.233Z,21.20
2018-07-08T21:22:43.948Z,20.90
2018-07-08T21:27:36.346Z,20.80
2018-07-08T21:32:27.325Z,20.80
2018-07-08T21:37:18.256Z,20.80
2018-07-08T21:42:09.208Z,20.60
2018-07-08T21:47:00.156Z,20.60
2018-07-08T21:51:51.042Z,20.50
2018-07-08T21:56:41.983Z,20.40
2018-07-08T22:01:32.881Z,20.30
2018-07-08T22:06:23.839Z,20.20
2018-07-08T22:11:14.784Z,20.10
2018-07-08T22:16:06.493Z,19.90
2018-07-08T22:20:57.409Z,19.90
2018-07-08T22:25:48.335Z,19.80
2018-07-08T22:30:39.248Z,19.70
2018-07-08T22:35:30.147Z,19.60
2018-07-08T22:40:21.073Z,19.50
2018-07-08T22:45:12.044Z,19.40
2018-07-08T22:50:03.693Z,19.20
2018-07-08T22:54:54.600Z,19.20
2018-07-08T22:59:46.313Z,19.10
2018-07-08T23:04:37.228Z,19.10
2018-07-08T23:09:28.135Z,19.00
2018-07-08T23:14:19.032Z,19.00
2018-07-08T23:19:09.935Z,18.90
2018-07-08T23:24:00.836Z,18.80
2018-07-08T23:28:52.493Z,18.70
2018-07-08T23:33:43.389Z,18.70
2018-07-08T23:38:35.058Z,18.60
2018-07-08T23:43:25.956Z,18.60
2018-07-08T23:48:16.856Z,18.60
2018-07-08T23:53:08.475Z,18.50
2018-07-08T23:58:00.112Z,18.40
